AOS48 EGHR-EGBB
Flight info
| Callsign | AOS48 |
|---|---|
| Flight time | 1h 4m |
| Altitude | 10000 |
| Route | PEPIS Q41 SILVA |
| Aircraft | DA42/L-SBDGRY/S |
Departure
| Time | 2026-04-22 17:09 |
|---|---|
| Airport | Goodwood Aerodrome (EGHR) |
Arrival
| Time | 2026-04-22 18:13 |
|---|---|
| Airport | Birmingham Airport (EGBB) |
| Time | Latitude | Longitude | Altitude | Speed | Heading |
|---|---|---|---|---|---|
| 2026-04-22 17:00 | 50.85977 | -0.75784 | 104 ft | 1 kts | 343° |
| 2026-04-22 17:01 | 50.85998 | -0.75778 | 106 ft | 2 kts | 44° |
| 2026-04-22 17:01 | 50.85999 | -0.75776 | 106 ft | 0 kts | 47° |
| 2026-04-22 17:01 | 50.86003 | -0.75770 | 106 ft | 3 kts | 50° |
| 2026-04-22 17:01 | 50.86036 | -0.75712 | 107 ft | 6 kts | 52° |
| 2026-04-22 17:02 | 50.86056 | -0.75669 | 107 ft | 12 kts | 55° |
| 2026-04-22 17:02 | 50.86081 | -0.75618 | 108 ft | 0 kts | 52° |
| 2026-04-22 17:02 | 50.86082 | -0.75616 | 108 ft | 5 kts | 51° |
| 2026-04-22 17:03 | 50.86120 | -0.75547 | 107 ft | 0 kts | 46° |
| 2026-04-22 17:03 | 50.86137 | -0.75522 | 107 ft | 14 kts | 44° |
| 2026-04-22 17:03 | 50.86201 | -0.75416 | 108 ft | 7 kts | 35° |
| 2026-04-22 17:04 | 50.86233 | -0.75391 | 109 ft | 8 kts | 349° |
| 2026-04-22 17:04 | 50.86239 | -0.75434 | 109 ft | 0 kts | 239° |
| 2026-04-22 17:04 | 50.86237 | -0.75437 | 109 ft | 0 kts | 239° |
| 2026-04-22 17:08 | 50.86236 | -0.75440 | 109 ft | 4 kts | 240° |
| 2026-04-22 17:08 | 50.86104 | -0.75764 | 105 ft | 67 kts | 238° |
| 2026-04-22 17:08 | 50.85764 | -0.76589 | 128 ft | 107 kts | 237° |
| 2026-04-22 17:09 | 50.85374 | -0.77643 | 335 ft | 115 kts | 251° |
| 2026-04-22 17:09 | 50.85406 | -0.78850 | 640 ft | 106 kts | 317° |
| 2026-04-22 17:09 | 50.85936 | -0.79650 | 838 ft | 109 kts | 344° |
| 2026-04-22 17:09 | 50.86586 | -0.80223 | 1149 ft | 109 kts | 352° |
| 2026-04-22 17:10 | 50.87243 | -0.80735 | 1499 ft | 106 kts | 348° |
| 2026-04-22 17:10 | 50.87886 | -0.81355 | 1816 ft | 113 kts | 335° |
| 2026-04-22 17:10 | 50.88524 | -0.82185 | 2136 ft | 123 kts | 329° |
| 2026-04-22 17:10 | 50.89247 | -0.82784 | 2439 ft | 111 kts | 2° |
| 2026-04-22 17:11 | 50.89991 | -0.82844 | 2768 ft | 106 kts | 13° |
| 2026-04-22 17:11 | 50.90749 | -0.83023 | 3055 ft | 119 kts | 351° |
| 2026-04-22 17:11 | 50.91472 | -0.83801 | 3320 ft | 130 kts | 328° |
| 2026-04-22 17:11 | 50.92159 | -0.84759 | 3601 ft | 133 kts | 325° |
| 2026-04-22 17:12 | 50.92844 | -0.85740 | 3890 ft | 132 kts | 324° |
| 2026-04-22 17:12 | 50.93562 | -0.86764 | 3983 ft | 150 kts | 323° |
| 2026-04-22 17:12 | 50.94373 | -0.87917 | 3985 ft | 161 kts | 323° |
| 2026-04-22 17:12 | 50.95208 | -0.89114 | 3990 ft | 163 kts | 322° |
| 2026-04-22 17:13 | 50.96046 | -0.90319 | 3989 ft | 162 kts | 322° |
| 2026-04-22 17:13 | 50.96884 | -0.91520 | 3992 ft | 164 kts | 322° |
| 2026-04-22 17:13 | 50.97730 | -0.92732 | 3991 ft | 163 kts | 322° |
| 2026-04-22 17:13 | 50.98572 | -0.93942 | 3998 ft | 164 kts | 322° |
| 2026-04-22 17:14 | 50.99416 | -0.95151 | 3999 ft | 163 kts | 323° |
| 2026-04-22 17:14 | 51.00256 | -0.96355 | 4001 ft | 162 kts | 323° |
| 2026-04-22 17:14 | 51.01090 | -0.97552 | 4002 ft | 161 kts | 322° |
| 2026-04-22 17:14 | 51.01912 | -0.98734 | 4006 ft | 162 kts | 322° |
| 2026-04-22 17:15 | 51.02476 | -0.99542 | 4001 ft | 161 kts | 322° |
| 2026-04-22 17:15 | 51.03574 | -1.01120 | 4004 ft | 160 kts | 322° |
| 2026-04-22 17:15 | 51.04399 | -1.02307 | 4006 ft | 160 kts | 322° |
| 2026-04-22 17:15 | 51.05225 | -1.03495 | 4003 ft | 160 kts | 322° |
| 2026-04-22 17:16 | 51.06050 | -1.04681 | 4011 ft | 160 kts | 322° |
| 2026-04-22 17:16 | 51.06874 | -1.05868 | 4009 ft | 160 kts | 322° |
| 2026-04-22 17:16 | 51.07698 | -1.07056 | 4009 ft | 159 kts | 322° |
| 2026-04-22 17:16 | 51.08516 | -1.08236 | 4009 ft | 159 kts | 322° |
| 2026-04-22 17:17 | 51.09334 | -1.09415 | 4013 ft | 159 kts | 322° |
| 2026-04-22 17:17 | 51.10152 | -1.10595 | 4010 ft | 159 kts | 322° |
| 2026-04-22 17:17 | 51.10968 | -1.11773 | 4010 ft | 158 kts | 322° |
| 2026-04-22 17:17 | 51.11784 | -1.12951 | 4012 ft | 159 kts | 322° |
| 2026-04-22 17:18 | 51.12599 | -1.14129 | 4011 ft | 158 kts | 322° |
| 2026-04-22 17:18 | 51.13413 | -1.15306 | 4010 ft | 158 kts | 322° |
| 2026-04-22 17:18 | 51.14227 | -1.16483 | 4009 ft | 158 kts | 322° |
| 2026-04-22 17:18 | 51.15027 | -1.17643 | 4095 ft | 152 kts | 322° |
| 2026-04-22 17:19 | 51.16587 | -1.19901 | 4163 ft | 154 kts | 322° |
| 2026-04-22 17:19 | 51.18246 | -1.22305 | 4389 ft | 164 kts | 321° |
| 2026-04-22 17:20 | 51.20168 | -1.23736 | 4745 ft | 147 kts | 19° |
| 2026-04-22 17:20 | 51.22096 | -1.22802 | 5149 ft | 143 kts | 26° |
| 2026-04-22 17:21 | 51.23042 | -1.22380 | 5398 ft | 140 kts | 25° |
| 2026-04-22 17:21 | 51.24912 | -1.21614 | 5900 ft | 138 kts | 24° |
| 2026-04-22 17:22 | 51.26773 | -1.20867 | 6415 ft | 139 kts | 24° |
| 2026-04-22 17:22 | 51.27709 | -1.20492 | 6674 ft | 139 kts | 24° |
| 2026-04-22 17:22 | 51.29590 | -1.19738 | 7154 ft | 139 kts | 23° |
| 2026-04-22 17:23 | 51.30530 | -1.19361 | 7402 ft | 139 kts | 23° |
| 2026-04-22 17:23 | 51.32414 | -1.18606 | 7894 ft | 140 kts | 24° |
| 2026-04-22 17:23 | 51.33359 | -1.18226 | 8125 ft | 140 kts | 23° |
| 2026-04-22 17:24 | 51.34306 | -1.17846 | 8374 ft | 140 kts | 22° |
| 2026-04-22 17:24 | 51.35253 | -1.17466 | 8630 ft | 140 kts | 22° |
| 2026-04-22 17:24 | 51.36201 | -1.17084 | 8892 ft | 141 kts | 22° |
| 2026-04-22 17:24 | 51.37153 | -1.16701 | 9145 ft | 141 kts | 22° |
| 2026-04-22 17:25 | 51.38106 | -1.16318 | 9404 ft | 141 kts | 22° |
| 2026-04-22 17:25 | 51.39061 | -1.15934 | 9669 ft | 142 kts | 22° |
| 2026-04-22 17:25 | 51.40018 | -1.15548 | 9940 ft | 142 kts | 22° |
| 2026-04-22 17:25 | 51.40981 | -1.15160 | 10200 ft | 143 kts | 22° |
| 2026-04-22 17:26 | 51.41972 | -1.14756 | 10306 ft | 154 kts | 22° |
| 2026-04-22 17:26 | 51.43050 | -1.14315 | 10313 ft | 164 kts | 21° |
| 2026-04-22 17:26 | 51.44181 | -1.13860 | 10315 ft | 170 kts | 21° |
| 2026-04-22 17:26 | 51.45339 | -1.13397 | 10316 ft | 172 kts | 20° |
| 2026-04-22 17:27 | 51.46496 | -1.12933 | 10318 ft | 171 kts | 21° |
| 2026-04-22 17:27 | 51.47653 | -1.12467 | 10318 ft | 171 kts | 21° |
| 2026-04-22 17:27 | 51.48806 | -1.11991 | 10320 ft | 170 kts | 21° |
| 2026-04-22 17:27 | 51.49934 | -1.11504 | 10321 ft | 170 kts | 21° |
| 2026-04-22 17:28 | 51.51093 | -1.11004 | 10321 ft | 170 kts | 22° |
| 2026-04-22 17:28 | 51.52240 | -1.10512 | 10323 ft | 170 kts | 21° |
| 2026-04-22 17:28 | 51.53383 | -1.10022 | 10321 ft | 170 kts | 21° |
| 2026-04-22 17:28 | 51.54504 | -1.09542 | 10320 ft | 168 kts | 21° |
| 2026-04-22 17:29 | 51.55634 | -1.09057 | 10322 ft | 168 kts | 21° |
| 2026-04-22 17:29 | 51.56768 | -1.08570 | 10323 ft | 169 kts | 22° |
| 2026-04-22 17:29 | 51.57903 | -1.08082 | 10315 ft | 169 kts | 22° |
| 2026-04-22 17:29 | 51.59036 | -1.07596 | 10316 ft | 168 kts | 21° |
| 2026-04-22 17:30 | 51.60166 | -1.07110 | 10316 ft | 168 kts | 21° |
| 2026-04-22 17:30 | 51.61299 | -1.06623 | 10316 ft | 169 kts | 22° |
| 2026-04-22 17:30 | 51.62465 | -1.06271 | 10318 ft | 171 kts | 15° |
| 2026-04-22 17:30 | 51.63648 | -1.05967 | 10317 ft | 172 kts | 14° |
| 2026-04-22 17:31 | 51.64828 | -1.05666 | 10317 ft | 171 kts | 15° |
| 2026-04-22 17:31 | 51.65994 | -1.05369 | 10317 ft | 169 kts | 15° |
| 2026-04-22 17:31 | 51.67150 | -1.05073 | 10315 ft | 168 kts | 16° |
| 2026-04-22 17:31 | 51.68295 | -1.04779 | 10314 ft | 166 kts | 15° |
| 2026-04-22 17:32 | 51.69425 | -1.04489 | 10314 ft | 164 kts | 15° |
| 2026-04-22 17:32 | 51.70549 | -1.04201 | 10314 ft | 163 kts | 15° |
| 2026-04-22 17:32 | 51.71672 | -1.03912 | 10315 ft | 164 kts | 16° |
| 2026-04-22 17:32 | 51.72797 | -1.03622 | 10314 ft | 164 kts | 15° |
| 2026-04-22 17:33 | 51.73540 | -1.03431 | 10313 ft | 163 kts | 15° |
| 2026-04-22 17:33 | 51.75036 | -1.03047 | 10313 ft | 162 kts | 16° |
| 2026-04-22 17:33 | 51.76150 | -1.02760 | 10313 ft | 162 kts | 16° |
| 2026-04-22 17:33 | 51.77264 | -1.02473 | 10313 ft | 162 kts | 17° |
| 2026-04-22 17:34 | 51.78381 | -1.02185 | 10314 ft | 163 kts | 16° |
| 2026-04-22 17:34 | 51.79500 | -1.01897 | 10313 ft | 162 kts | 15° |
| 2026-04-22 17:34 | 51.80613 | -1.01610 | 10309 ft | 162 kts | 16° |
| 2026-04-22 17:34 | 51.81723 | -1.01324 | 10317 ft | 162 kts | 16° |
| 2026-04-22 17:35 | 51.82838 | -1.01036 | 10319 ft | 163 kts | 15° |
| 2026-04-22 17:35 | 51.83966 | -1.00792 | 10315 ft | 166 kts | 6° |
| 2026-04-22 17:35 | 51.85112 | -1.01165 | 10313 ft | 171 kts | 338° |
| 2026-04-22 17:35 | 51.86104 | -1.02231 | 10315 ft | 172 kts | 323° |
| 2026-04-22 17:36 | 51.87042 | -1.03429 | 10315 ft | 172 kts | 322° |
| 2026-04-22 17:36 | 51.87976 | -1.04633 | 10315 ft | 172 kts | 322° |
| 2026-04-22 17:36 | 51.88913 | -1.05834 | 10315 ft | 172 kts | 322° |
| 2026-04-22 17:36 | 51.89856 | -1.07040 | 10315 ft | 172 kts | 322° |
| 2026-04-22 17:37 | 51.90797 | -1.08241 | 10313 ft | 172 kts | 322° |
| 2026-04-22 17:37 | 51.91734 | -1.09440 | 10316 ft | 172 kts | 322° |
| 2026-04-22 17:37 | 51.92671 | -1.10638 | 10317 ft | 171 kts | 322° |
| 2026-04-22 17:37 | 51.93604 | -1.11833 | 10316 ft | 171 kts | 322° |
| 2026-04-22 17:38 | 51.94538 | -1.13030 | 10317 ft | 171 kts | 322° |
| 2026-04-22 17:38 | 51.95472 | -1.14227 | 10316 ft | 172 kts | 322° |
| 2026-04-22 17:38 | 51.96407 | -1.15426 | 10316 ft | 171 kts | 322° |
| 2026-04-22 17:38 | 51.97342 | -1.16625 | 10316 ft | 171 kts | 322° |
| 2026-04-22 17:39 | 51.98280 | -1.17830 | 10319 ft | 172 kts | 322° |
| 2026-04-22 17:39 | 51.99207 | -1.19020 | 10320 ft | 172 kts | 322° |
| 2026-04-22 17:39 | 52.01078 | -1.21425 | 10321 ft | 172 kts | 322° |
| 2026-04-22 17:40 | 52.02025 | -1.22643 | 10322 ft | 171 kts | 322° |
| 2026-04-22 17:40 | 52.02955 | -1.23841 | 10323 ft | 170 kts | 322° |
| 2026-04-22 17:40 | 52.03885 | -1.25038 | 10396 ft | 171 kts | 322° |
| 2026-04-22 17:40 | 52.04818 | -1.26241 | 10395 ft | 171 kts | 322° |
| 2026-04-22 17:41 | 52.05749 | -1.27440 | 10403 ft | 171 kts | 322° |
| 2026-04-22 17:41 | 52.06684 | -1.28647 | 10408 ft | 171 kts | 322° |
| 2026-04-22 17:41 | 52.07619 | -1.29854 | 10411 ft | 172 kts | 322° |
| 2026-04-22 17:41 | 52.08554 | -1.31062 | 10414 ft | 171 kts | 322° |
| 2026-04-22 17:42 | 52.09170 | -1.31857 | 10416 ft | 171 kts | 322° |
| 2026-04-22 17:42 | 52.10101 | -1.33060 | 10423 ft | 171 kts | 322° |
| 2026-04-22 17:42 | 52.11034 | -1.34268 | 10426 ft | 171 kts | 322° |
| 2026-04-22 17:42 | 52.11962 | -1.35469 | 10426 ft | 170 kts | 322° |
| 2026-04-22 17:43 | 52.12890 | -1.36670 | 10418 ft | 171 kts | 322° |
| 2026-04-22 17:43 | 52.13819 | -1.37873 | 10416 ft | 171 kts | 322° |
| 2026-04-22 17:43 | 52.14746 | -1.39076 | 10427 ft | 171 kts | 322° |
| 2026-04-22 17:43 | 52.15680 | -1.40287 | 10427 ft | 172 kts | 322° |
| 2026-04-22 17:44 | 52.16618 | -1.41505 | 10424 ft | 172 kts | 322° |
| 2026-04-22 17:44 | 52.17556 | -1.42721 | 10424 ft | 172 kts | 322° |
| 2026-04-22 17:44 | 52.18491 | -1.43935 | 10424 ft | 172 kts | 322° |
| 2026-04-22 17:44 | 52.19427 | -1.45152 | 10425 ft | 172 kts | 322° |
| 2026-04-22 17:45 | 52.20363 | -1.46369 | 10425 ft | 172 kts | 322° |
| 2026-04-22 17:45 | 52.21295 | -1.47582 | 10425 ft | 171 kts | 322° |
| 2026-04-22 17:45 | 52.22228 | -1.48797 | 10432 ft | 172 kts | 321° |
| 2026-04-22 17:45 | 52.23165 | -1.50018 | 10433 ft | 172 kts | 321° |
| 2026-04-22 17:46 | 52.24088 | -1.51221 | 10433 ft | 172 kts | 321° |
| 2026-04-22 17:46 | 52.25028 | -1.52447 | 10429 ft | 174 kts | 321° |
| 2026-04-22 17:46 | 52.25973 | -1.53681 | 10427 ft | 174 kts | 321° |
| 2026-04-22 17:46 | 52.26917 | -1.54912 | 10422 ft | 173 kts | 321° |
| 2026-04-22 17:47 | 52.27861 | -1.56146 | 10410 ft | 174 kts | 321° |
| 2026-04-22 17:47 | 52.28801 | -1.57374 | 10407 ft | 172 kts | 321° |
| 2026-04-22 17:47 | 52.29734 | -1.58595 | 10402 ft | 172 kts | 321° |
| 2026-04-22 17:47 | 52.30667 | -1.59816 | 10343 ft | 172 kts | 321° |
| 2026-04-22 17:48 | 52.31605 | -1.61044 | 10344 ft | 173 kts | 321° |
| 2026-04-22 17:48 | 52.32542 | -1.62270 | 10344 ft | 173 kts | 321° |
| 2026-04-22 17:48 | 52.33481 | -1.63501 | 10345 ft | 173 kts | 321° |
| 2026-04-22 17:48 | 52.34420 | -1.64733 | 10346 ft | 173 kts | 321° |
| 2026-04-22 17:49 | 52.35222 | -1.66189 | 10343 ft | 172 kts | 297° |
| 2026-04-22 17:49 | 52.35574 | -1.68010 | 10343 ft | 166 kts | 270° |
| 2026-04-22 17:49 | 52.35547 | -1.69885 | 10269 ft | 166 kts | 261° |
| 2026-04-22 17:49 | 52.35477 | -1.71779 | 10082 ft | 168 kts | 259° |
| 2026-04-22 17:50 | 52.35402 | -1.73696 | 9900 ft | 169 kts | 260° |
| 2026-04-22 17:50 | 52.35328 | -1.75625 | 9714 ft | 170 kts | 260° |
| 2026-04-22 17:50 | 52.35256 | -1.77552 | 9531 ft | 170 kts | 261° |
| 2026-04-22 17:50 | 52.35184 | -1.79472 | 9354 ft | 169 kts | 260° |
| 2026-04-22 17:51 | 52.35116 | -1.81332 | 9347 ft | 159 kts | 259° |
| 2026-04-22 17:51 | 52.35049 | -1.83103 | 9344 ft | 154 kts | 259° |
| 2026-04-22 17:51 | 52.34982 | -1.84828 | 9344 ft | 151 kts | 260° |
| 2026-04-22 17:51 | 52.34917 | -1.86525 | 9343 ft | 149 kts | 260° |
| 2026-04-22 17:52 | 52.34853 | -1.88210 | 9331 ft | 148 kts | 259° |
| 2026-04-22 17:52 | 52.34788 | -1.89883 | 9310 ft | 148 kts | 260° |
| 2026-04-22 17:52 | 52.34720 | -1.91622 | 9124 ft | 157 kts | 259° |
| 2026-04-22 17:52 | 52.34652 | -1.93417 | 8946 ft | 160 kts | 259° |
| 2026-04-22 17:53 | 52.34582 | -1.95241 | 8766 ft | 161 kts | 260° |
| 2026-04-22 17:53 | 52.34511 | -1.97077 | 8590 ft | 163 kts | 260° |
| 2026-04-22 17:53 | 52.34439 | -1.98926 | 8419 ft | 163 kts | 259° |
| 2026-04-22 17:53 | 52.34366 | -2.00774 | 8241 ft | 163 kts | 259° |
| 2026-04-22 17:54 | 52.34295 | -2.02619 | 8064 ft | 162 kts | 259° |
| 2026-04-22 17:54 | 52.34221 | -2.04455 | 7890 ft | 162 kts | 259° |
| 2026-04-22 17:54 | 52.34180 | -2.06297 | 7712 ft | 166 kts | 270° |
| 2026-04-22 17:54 | 52.34688 | -2.08004 | 7537 ft | 173 kts | 315° |
| 2026-04-22 17:55 | 52.35744 | -2.08837 | 7370 ft | 169 kts | 358° |
| 2026-04-22 17:55 | 52.36780 | -2.08435 | 7338 ft | 147 kts | 43° |
| 2026-04-22 17:55 | 52.37361 | -2.07215 | 7222 ft | 130 kts | 77° |
| 2026-04-22 17:55 | 52.37673 | -2.05848 | 7019 ft | 128 kts | 79° |
| 2026-04-22 17:56 | 52.37990 | -2.04488 | 6775 ft | 128 kts | 78° |
| 2026-04-22 17:56 | 52.38324 | -2.03137 | 6517 ft | 128 kts | 77° |
| 2026-04-22 17:56 | 52.38662 | -2.01802 | 6254 ft | 126 kts | 77° |
| 2026-04-22 17:56 | 52.39001 | -2.00478 | 6002 ft | 126 kts | 77° |
| 2026-04-22 17:57 | 52.39338 | -1.99166 | 5751 ft | 124 kts | 77° |
| 2026-04-22 17:57 | 52.39671 | -1.97869 | 5490 ft | 123 kts | 76° |
| 2026-04-22 17:57 | 52.40000 | -1.96591 | 5237 ft | 121 kts | 76° |
| 2026-04-22 17:57 | 52.40321 | -1.95334 | 4985 ft | 119 kts | 77° |
| 2026-04-22 17:58 | 52.40633 | -1.94087 | 4723 ft | 118 kts | 76° |
| 2026-04-22 17:58 | 52.40747 | -1.92822 | 4463 ft | 111 kts | 94° |
| 2026-04-22 17:58 | 52.40924 | -1.91576 | 4204 ft | 113 kts | 78° |
| 2026-04-22 17:58 | 52.41173 | -1.90352 | 3948 ft | 113 kts | 77° |
| 2026-04-22 17:59 | 52.41476 | -1.89155 | 3699 ft | 114 kts | 70° |
| 2026-04-22 17:59 | 52.41806 | -1.87978 | 3442 ft | 112 kts | 70° |
| 2026-04-22 17:59 | 52.42127 | -1.86826 | 3217 ft | 111 kts | 70° |
| 2026-04-22 17:59 | 52.42365 | -1.85644 | 2952 ft | 111 kts | 70° |
| 2026-04-22 18:00 | 52.42647 | -1.84922 | 2782 ft | 112 kts | 60° |
| 2026-04-22 18:00 | 52.43275 | -1.83569 | 2487 ft | 115 kts | 59° |
| 2026-04-22 18:00 | 52.43757 | -1.82549 | 2495 ft | 113 kts | 59° |
| 2026-04-22 18:00 | 52.44232 | -1.81522 | 2497 ft | 113 kts | 59° |
| 2026-04-22 18:01 | 52.44706 | -1.80486 | 2494 ft | 114 kts | 59° |
| 2026-04-22 18:01 | 52.45182 | -1.79456 | 2494 ft | 113 kts | 59° |
| 2026-04-22 18:01 | 52.45494 | -1.78322 | 2485 ft | 108 kts | 79° |
| 2026-04-22 18:01 | 52.45740 | -1.77173 | 2521 ft | 106 kts | 61° |
| 2026-04-22 18:02 | 52.46480 | -1.76779 | 2486 ft | 135 kts | 351° |
| 2026-04-22 18:02 | 52.47080 | -1.78020 | 2493 ft | 146 kts | 298° |
| 2026-04-22 18:02 | 52.47556 | -1.79493 | 2517 ft | 145 kts | 307° |
| 2026-04-22 18:02 | 52.48159 | -1.80819 | 2502 ft | 146 kts | 312° |
| 2026-04-22 18:03 | 52.48778 | -1.82154 | 2485 ft | 147 kts | 315° |
| 2026-04-22 18:03 | 52.49460 | -1.83370 | 2509 ft | 144 kts | 319° |
| 2026-04-22 18:03 | 52.50164 | -1.84552 | 2501 ft | 145 kts | 321° |
| 2026-04-22 18:03 | 52.50865 | -1.85705 | 2525 ft | 145 kts | 322° |
| 2026-04-22 18:04 | 52.51573 | -1.86898 | 2533 ft | 147 kts | 320° |
| 2026-04-22 18:04 | 52.52279 | -1.88121 | 2515 ft | 148 kts | 320° |
| 2026-04-22 18:04 | 52.52981 | -1.89372 | 2528 ft | 149 kts | 318° |
| 2026-04-22 18:04 | 52.53674 | -1.90666 | 2506 ft | 152 kts | 317° |
| 2026-04-22 18:05 | 52.54376 | -1.91975 | 2486 ft | 153 kts | 317° |
| 2026-04-22 18:05 | 52.55064 | -1.93308 | 2512 ft | 153 kts | 316° |
| 2026-04-22 18:05 | 52.55759 | -1.94642 | 2507 ft | 154 kts | 317° |
| 2026-04-22 18:05 | 52.56465 | -1.95939 | 2565 ft | 147 kts | 324° |
| 2026-04-22 18:06 | 52.57331 | -1.96655 | 2582 ft | 133 kts | 4° |
| 2026-04-22 18:06 | 52.58119 | -1.96277 | 2561 ft | 114 kts | 54° |
| 2026-04-22 18:06 | 52.58301 | -1.95144 | 2502 ft | 107 kts | 105° |
| 2026-04-22 18:06 | 52.58068 | -1.93990 | 2482 ft | 105 kts | 108° |
| 2026-04-22 18:07 | 52.57831 | -1.92868 | 2459 ft | 104 kts | 108° |
| 2026-04-22 18:07 | 52.57543 | -1.91776 | 2421 ft | 105 kts | 114° |
| 2026-04-22 18:07 | 52.57218 | -1.90723 | 2409 ft | 98 kts | 111° |
| 2026-04-22 18:07 | 52.56943 | -1.89706 | 2466 ft | 97 kts | 110° |
| 2026-04-22 18:08 | 52.56685 | -1.88691 | 2515 ft | 96 kts | 109° |
| 2026-04-22 18:08 | 52.56408 | -1.87688 | 2545 ft | 98 kts | 120° |
| 2026-04-22 18:08 | 52.55880 | -1.86888 | 2488 ft | 110 kts | 139° |
| 2026-04-22 18:08 | 52.55264 | -1.86191 | 2442 ft | 103 kts | 135° |
| 2026-04-22 18:09 | 52.54699 | -1.85487 | 2345 ft | 100 kts | 134° |
| 2026-04-22 18:09 | 52.54159 | -1.84808 | 2263 ft | 96 kts | 133° |
| 2026-04-22 18:09 | 52.53624 | -1.84151 | 2122 ft | 95 kts | 133° |
| 2026-04-22 18:09 | 52.53110 | -1.83533 | 2012 ft | 90 kts | 134° |
| 2026-04-22 18:10 | 52.52601 | -1.82890 | 1891 ft | 94 kts | 134° |
| 2026-04-22 18:10 | 52.52051 | -1.82272 | 1762 ft | 98 kts | 137° |
| 2026-04-22 18:10 | 52.51483 | -1.81640 | 1633 ft | 100 kts | 137° |
| 2026-04-22 18:10 | 52.50906 | -1.80986 | 1491 ft | 102 kts | 136° |
| 2026-04-22 18:11 | 52.50320 | -1.80338 | 1361 ft | 101 kts | 138° |
| 2026-04-22 18:11 | 52.49742 | -1.79780 | 1230 ft | 93 kts | 136° |
| 2026-04-22 18:11 | 52.49269 | -1.79182 | 1085 ft | 76 kts | 133° |
| 2026-04-22 18:11 | 52.48850 | -1.78650 | 938 ft | 77 kts | 135° |
| 2026-04-22 18:12 | 52.48389 | -1.78158 | 820 ft | 82 kts | 136° |
| 2026-04-22 18:12 | 52.47924 | -1.77636 | 714 ft | 79 kts | 133° |
| 2026-04-22 18:12 | 52.47622 | -1.77293 | 627 ft | 78 kts | 132° |
| 2026-04-22 18:12 | 52.47047 | -1.76655 | 510 ft | 73 kts | 129° |
| 2026-04-22 18:13 | 52.46629 | -1.76198 | 396 ft | 72 kts | 132° |
| 2026-04-22 18:13 | 52.46221 | -1.75731 | 329 ft | 71 kts | 135° |
| 2026-04-22 18:13 | 52.45856 | -1.75328 | 317 ft | 48 kts | 141° |
| 2026-04-22 18:13 | 52.45643 | -1.75083 | 319 ft | 33 kts | 147° |
| 2026-04-22 18:14 | 52.45436 | -1.74856 | 319 ft | 31 kts | 152° |
| 2026-04-22 18:14 | 52.45321 | -1.74964 | 320 ft | 29 kts | 239° |
| 2026-04-22 18:14 | 52.45235 | -1.75182 | 321 ft | 0 kts | 237° |
| 2026-04-22 18:14 | 52.45226 | -1.75200 | 321 ft | 6 kts | 224° |
| 2026-04-22 18:15 | 52.45193 | -1.75216 | 321 ft | 9 kts | 159° |
| 2026-04-22 18:15 | 52.45127 | -1.75131 | 322 ft | 8 kts | 120° |
| 2026-04-22 18:15 | 52.45121 | -1.75118 | 322 ft | 0 kts | 131° |